createdAt,value
2022-12-29T00:01:20.287Z,6.60
2022-12-29T00:06:43.537Z,6.66
2022-12-29T00:12:05.872Z,6.69
2022-12-29T00:17:27.689Z,6.72
2022-12-29T00:22:49.507Z,6.68
2022-12-29T00:28:11.574Z,6.66
2022-12-29T00:33:34.744Z,6.65
2022-12-29T00:39:01.724Z,6.60
2022-12-29T00:44:23.550Z,6.60
2022-12-29T00:49:45.431Z,6.70
2022-12-29T00:55:07.636Z,6.65
2022-12-29T01:00:29.496Z,6.62
2022-12-29T01:05:51.410Z,6.59
2022-12-29T01:11:13.907Z,6.51
2022-12-29T01:16:35.934Z,6.44
2022-12-29T01:21:57.868Z,6.34
2022-12-29T01:27:19.709Z,6.31
2022-12-29T01:32:41.497Z,6.38
2022-12-29T01:38:03.653Z,6.33
2022-12-29T01:43:45.575Z,6.38
2022-12-29T01:49:19.424Z,6.39
2022-12-29T01:54:51.562Z,6.34
2022-12-29T02:00:14.441Z,6.41
2022-12-29T02:05:58.833Z,6.42
2022-12-29T02:11:20.872Z,6.41
2022-12-29T02:17:20.188Z,6.26
2022-12-29T02:22:44.989Z,6.32
2022-12-29T02:28:35.158Z,6.28
2022-12-29T02:34:17.555Z,6.31
2022-12-29T02:39:49.345Z,6.24
2022-12-29T02:45:16.609Z,6.23
2022-12-29T02:50:53.913Z,6.14
2022-12-29T02:56:15.749Z,6.11
2022-12-29T03:02:02.186Z,6.10
2022-12-29T03:07:29.024Z,5.94
2022-12-29T03:12:57.377Z,5.79
2022-12-29T03:18:26.102Z,5.79
2022-12-29T03:23:50.389Z,5.72
2022-12-29T03:29:13.948Z,5.59
2022-12-29T03:34:38.135Z,5.43
2022-12-29T03:40:00.084Z,5.30
2022-12-29T03:45:21.938Z,5.21
2022-12-29T03:50:43.773Z,5.08
2022-12-29T03:56:05.813Z,4.85
2022-12-29T04:01:27.707Z,4.84
2022-12-29T04:06:49.592Z,4.89
2022-12-29T04:12:11.483Z,4.89
2022-12-29T04:17:33.370Z,4.87
2022-12-29T04:23:05.562Z,4.64
2022-12-29T04:28:27.623Z,4.62
2022-12-29T04:33:49.603Z,4.65
2022-12-29T04:39:11.575Z,4.58
2022-12-29T04:44:33.407Z,4.40
2022-12-29T04:49:56.660Z,4.33
2022-12-29T04:55:18.612Z,4.28
2022-12-29T05:00:40.433Z,4.48
2022-12-29T05:06:02.721Z,4.35
2022-12-29T05:11:24.533Z,4.45
2022-12-29T05:16:46.354Z,4.50
2022-12-29T05:22:08.206Z,4.42
2022-12-29T05:27:30.069Z,4.56
2022-12-29T05:32:52.069Z,4.50
2022-12-29T05:38:13.925Z,4.51
2022-12-29T05:43:36.334Z,4.62
2022-12-29T05:48:58.328Z,4.60
2022-12-29T05:54:20.240Z,4.57
2022-12-29T05:59:42.061Z,4.66
2022-12-29T06:05:04.147Z,4.63
2022-12-29T06:10:26.073Z,4.62
2022-12-29T06:15:50.416Z,4.76
2022-12-29T06:21:12.254Z,4.83
2022-12-29T06:26:34.122Z,4.81
2022-12-29T06:31:56.043Z,4.84
2022-12-29T06:37:17.880Z,4.82
2022-12-29T06:42:39.775Z,5.00
2022-12-29T06:48:01.603Z,4.99
2022-12-29T06:53:23.454Z,5.04
2022-12-29T06:58:45.335Z,5.13
2022-12-29T07:04:07.187Z,5.06
2022-12-29T07:09:29.019Z,5.14
2022-12-29T07:14:50.892Z,5.31
2022-12-29T07:20:12.720Z,5.33
2022-12-29T07:25:34.599Z,5.47
2022-12-29T07:30:56.433Z,5.64
2022-12-29T07:36:18.397Z,5.53
2022-12-29T07:41:40.207Z,5.74
2022-12-29T07:47:02.416Z,5.77
2022-12-29T07:52:24.340Z,5.84
2022-12-29T07:57:46.297Z,5.95
2022-12-29T08:03:08.156Z,5.98
2022-12-29T08:08:29.967Z,5.96
2022-12-29T08:13:52.791Z,6.08
2022-12-29T08:19:15.083Z,6.31
2022-12-29T08:24:36.945Z,7.05
2022-12-29T08:29:58.776Z,7.37
2022-12-29T08:35:20.650Z,7.32
2022-12-29T08:40:42.682Z,7.32
2022-12-29T08:46:04.668Z,7.60
2022-12-29T08:51:26.599Z,7.66
2022-12-29T08:56:48.410Z,7.61
2022-12-29T09:02:12.710Z,7.71
2022-12-29T09:07:34.902Z,7.94
2022-12-29T09:12:56.918Z,8.03
2022-12-29T09:18:21.398Z,7.84
2022-12-29T09:23:43.689Z,8.00
2022-12-29T09:29:05.580Z,7.95
2022-12-29T09:34:27.443Z,8.17
2022-12-29T09:39:54.305Z,8.13
2022-12-29T09:45:57.091Z,8.10
2022-12-29T09:51:24.606Z,8.22
2022-12-29T09:56:48.339Z,8.28
2022-12-29T10:02:31.080Z,8.27
2022-12-29T10:08:17.777Z,8.25
2022-12-29T10:13:51.782Z,8.22
2022-12-29T10:19:32.945Z,8.05
2022-12-29T10:24:56.424Z,8.18
2022-12-29T10:30:19.262Z,8.28
2022-12-29T10:35:42.465Z,8.24
2022-12-29T10:41:14.943Z,8.34
2022-12-29T10:46:38.430Z,8.34
2022-12-29T10:52:03.989Z,8.28
2022-12-29T10:57:33.389Z,8.40
2022-12-29T11:03:16.493Z,8.43
2022-12-29T11:08:46.095Z,8.45
2022-12-29T11:14:19.087Z,8.54
2022-12-29T11:19:41.378Z,8.72
2022-12-29T11:25:13.197Z,8.77
2022-12-29T11:30:35.059Z,8.72
2022-12-29T11:36:13.145Z,8.83
2022-12-29T11:41:34.984Z,8.81
2022-12-29T11:46:56.839Z,8.87
2022-12-29T11:52:23.536Z,8.98
2022-12-29T11:57:45.951Z,8.71
2022-12-29T12:03:24.274Z,9.03
2022-12-29T12:08:58.865Z,9.07
2022-12-29T12:14:26.729Z,9.21
2022-12-29T12:20:23.739Z,9.09
2022-12-29T12:25:58.596Z,9.21
2022-12-29T12:31:44.337Z,9.27
2022-12-29T12:37:19.881Z,9.15
2022-12-29T12:43:05.009Z,9.40
2022-12-29T12:48:59.994Z,9.45
2022-12-29T12:54:59.684Z,9.43
2022-12-29T13:00:22.471Z,9.41
2022-12-29T13:05:56.393Z,9.40
2022-12-29T13:11:43.113Z,9.36
2022-12-29T13:17:15.474Z,9.45
2022-12-29T13:23:05.605Z,9.30
2022-12-29T13:28:42.217Z,9.38
2022-12-29T13:34:15.596Z,9.34
2022-12-29T13:39:46.901Z,9.40
2022-12-29T13:45:17.457Z,9.39
2022-12-29T13:50:41.270Z,9.50
2022-12-29T13:56:13.730Z,9.54
2022-12-29T14:01:40.596Z,9.58
2022-12-29T14:07:15.934Z,9.56
2022-12-29T14:12:44.164Z,9.61
2022-12-29T14:18:27.585Z,9.49
2022-12-29T14:23:51.514Z,9.59
2022-12-29T14:29:17.892Z,9.56
2022-12-29T14:34:40.156Z,9.52
2022-12-29T14:45:31.151Z,9.42
2022-12-29T14:50:53.097Z,9.55
2022-12-29T14:56:40.806Z,9.44
2022-12-29T15:02:18.579Z,9.47
2022-12-29T15:07:41.666Z,9.50
2022-12-29T15:13:06.528Z,9.54
2022-12-29T15:18:33.941Z,9.41
2022-12-29T15:23:55.996Z,9.33
2022-12-29T15:29:41.361Z,9.37
2022-12-29T15:35:32.660Z,9.39
2022-12-29T15:40:57.713Z,9.37
2022-12-29T15:46:19.971Z,9.32
2022-12-29T15:51:42.090Z,9.31
2022-12-29T15:57:04.920Z,9.25
2022-12-29T16:02:27.737Z,9.13
2022-12-29T16:07:56.127Z,9.09
2022-12-29T16:13:36.869Z,9.06
2022-12-29T16:19:21.468Z,8.98
2022-12-29T16:24:43.436Z,8.98
2022-12-29T16:30:17.147Z,8.97
2022-12-29T16:35:47.288Z,8.98
2022-12-29T16:41:09.181Z,8.84
2022-12-29T16:46:31.689Z,8.88
2022-12-29T16:51:55.441Z,8.83
2022-12-29T16:57:32.512Z,8.82
2022-12-29T17:02:59.582Z,8.93
2022-12-29T17:08:22.528Z,8.94
2022-12-29T17:13:44.457Z,8.85
2022-12-29T17:19:08.573Z,8.93
2022-12-29T17:24:30.476Z,8.98
2022-12-29T17:29:55.789Z,9.05
2022-12-29T17:35:19.889Z,9.09
2022-12-29T17:40:42.114Z,9.08
2022-12-29T17:46:06.931Z,9.14
2022-12-29T17:51:28.895Z,9.20
2022-12-29T17:56:51.312Z,9.06
2022-12-29T18:02:31.915Z,9.25
2022-12-29T18:07:55.870Z,9.23
2022-12-29T18:13:30.291Z,9.21
2022-12-29T18:18:57.845Z,9.13
2022-12-29T18:24:19.742Z,9.28
2022-12-29T18:29:42.162Z,9.12
2022-12-29T18:35:04.323Z,9.00
2022-12-29T18:40:26.173Z,9.00
2022-12-29T18:45:48.348Z,8.92
2022-12-29T18:51:24.430Z,8.84
2022-12-29T18:56:46.242Z,8.80
2022-12-29T19:02:15.733Z,8.85
2022-12-29T19:07:37.689Z,8.95
2022-12-29T19:12:59.676Z,8.86
2022-12-29T19:24:05.682Z,8.92
2022-12-29T19:29:27.530Z,9.02
2022-12-29T19:34:49.450Z,8.92
2022-12-29T19:40:14.626Z,8.79
2022-12-29T19:45:39.089Z,8.74
2022-12-29T19:51:09.955Z,8.69
2022-12-29T19:56:31.788Z,8.74
2022-12-29T20:01:53.755Z,8.78
2022-12-29T20:07:17.790Z,8.87
2022-12-29T20:12:39.846Z,8.77
2022-12-29T20:18:13.242Z,8.92
2022-12-29T20:23:38.401Z,9.03
2022-12-29T20:29:00.264Z,8.94
2022-12-29T20:34:22.126Z,8.98
2022-12-29T20:39:44.113Z,9.02
2022-12-29T20:45:06.310Z,8.91
2022-12-29T20:50:28.136Z,8.92
2022-12-29T20:55:50.075Z,8.88
2022-12-29T21:01:15.608Z,8.85
2022-12-29T21:06:37.772Z,8.86
2022-12-29T21:11:59.583Z,8.81
2022-12-29T21:17:21.394Z,8.97
2022-12-29T21:22:43.244Z,8.91
2022-12-29T21:28:09.925Z,8.94
2022-12-29T21:33:31.856Z,9.01
2022-12-29T21:38:54.330Z,9.09
2022-12-29T21:44:16.178Z,9.10
2022-12-29T21:49:38.092Z,9.18
2022-12-29T21:54:59.914Z,9.18
2022-12-29T22:00:21.904Z,9.33
2022-12-29T22:05:44.116Z,9.34
2022-12-29T22:11:08.453Z,9.37
2022-12-29T22:16:30.374Z,9.39
2022-12-29T22:21:52.327Z,9.40
2022-12-29T22:27:14.191Z,9.47
2022-12-29T22:32:36.138Z,9.37
2022-12-29T22:37:57.995Z,9.37
2022-12-29T22:43:19.915Z,9.28
2022-12-29T22:48:41.853Z,9.35
2022-12-29T22:54:03.793Z,9.43
2022-12-29T22:59:25.676Z,9.40
2022-12-29T23:05:03.041Z,9.23
2022-12-29T23:10:26.179Z,9.27
2022-12-29T23:15:48.374Z,9.26
2022-12-29T23:21:11.027Z,9.21
2022-12-29T23:26:42.590Z,9.25
2022-12-29T23:32:04.471Z,9.22
2022-12-29T23:37:26.522Z,9.24
2022-12-29T23:42:48.379Z,9.19
2022-12-29T23:48:10.373Z,9.11
2022-12-29T23:53:33.858Z,8.99
2022-12-29T23:58:55.808Z,8.95
